sensor_id;sensor_type;location;lat;lon;timestamp;P1;durP1;ratioP1;P2;durP2;ratioP2
18748;SDS011;9503;53.560;10.246;2022-08-01T00:01:28;54.72;;;29.75;;
18748;SDS011;9503;53.560;10.246;2022-08-01T00:03:55;48.42;;;30.02;;
18748;SDS011;9503;53.560;10.246;2022-08-01T00:06:22;55.42;;;30.08;;
18748;SDS011;9503;53.560;10.246;2022-08-01T00:08:48;45.47;;;29.70;;
18748;SDS011;9503;53.560;10.246;2022-08-01T00:11:15;51.60;;;30.23;;
18748;SDS011;9503;53.560;10.246;2022-08-01T00:13:42;44.75;;;28.38;;
18748;SDS011;9503;53.560;10.246;2022-08-01T00:16:09;58.47;;;29.80;;
18748;SDS011;9503;53.560;10.246;2022-08-01T00:18:37;40.83;;;26.63;;
18748;SDS011;9503;53.560;10.246;2022-08-01T00:21:04;49.05;;;28.45;;
18748;SDS011;9503;53.560;10.246;2022-08-01T00:23:31;44.92;;;25.65;;
18748;SDS011;9503;53.560;10.246;2022-08-01T00:25:57;41.38;;;25.73;;
18748;SDS011;9503;53.560;10.246;2022-08-01T00:28:24;43.42;;;28.02;;
18748;SDS011;9503;53.560;10.246;2022-08-01T00:30:51;53.10;;;28.33;;
18748;SDS011;9503;53.560;10.246;2022-08-01T00:33:18;46.72;;;28.08;;
18748;SDS011;9503;53.560;10.246;2022-08-01T00:35:46;45.70;;;26.30;;
18748;SDS011;9503;53.560;10.246;2022-08-01T00:38:12;42.75;;;26.23;;
18748;SDS011;9503;53.560;10.246;2022-08-01T00:40:39;47.95;;;28.35;;
18748;SDS011;9503;53.560;10.246;2022-08-01T00:43:06;45.38;;;26.42;;
18748;SDS011;9503;53.560;10.246;2022-08-01T00:45:32;40.50;;;23.17;;
18748;SDS011;9503;53.560;10.246;2022-08-01T00:47:59;53.05;;;24.98;;
18748;SDS011;9503;53.560;10.246;2022-08-01T00:50:26;43.33;;;23.48;;
18748;SDS011;9503;53.560;10.246;2022-08-01T00:52:54;51.45;;;26.65;;
18748;SDS011;9503;53.560;10.246;2022-08-01T00:55:23;39.72;;;24.45;;
18748;SDS011;9503;53.560;10.246;2022-08-01T00:57:50;43.65;;;24.73;;
18748;SDS011;9503;53.560;10.246;2022-08-01T01:00:17;38.55;;;23.27;;
18748;SDS011;9503;53.560;10.246;2022-08-01T01:02:44;54.22;;;26.02;;
18748;SDS011;9503;53.560;10.246;2022-08-01T01:05:11;45.33;;;24.02;;
18748;SDS011;9503;53.560;10.246;2022-08-01T01:07:40;51.38;;;25.35;;
18748;SDS011;9503;53.560;10.246;2022-08-01T01:10:17;43.70;;;23.33;;
18748;SDS011;9503;53.560;10.246;2022-08-01T01:12:50;42.00;;;22.90;;
18748;SDS011;9503;53.560;10.246;2022-08-01T01:15:22;40.45;;;23.33;;
18748;SDS011;9503;53.560;10.246;2022-08-01T01:17:55;41.10;;;21.67;;
18748;SDS011;9503;53.560;10.246;2022-08-01T01:20:24;44.95;;;21.85;;
18748;SDS011;9503;53.560;10.246;2022-08-01T01:26:09;44.90;;;22.17;;
18748;SDS011;9503;53.560;10.246;2022-08-01T01:31:40;42.80;;;21.25;;
18748;SDS011;9503;53.560;10.246;2022-08-01T01:34:11;38.08;;;20.42;;
18748;SDS011;9503;53.560;10.246;2022-08-01T01:36:39;35.47;;;20.98;;
18748;SDS011;9503;53.560;10.246;2022-08-01T01:39:08;41.30;;;19.98;;
18748;SDS011;9503;53.560;10.246;2022-08-01T01:41:36;39.88;;;21.48;;
18748;SDS011;9503;53.560;10.246;2022-08-01T01:44:04;35.65;;;20.25;;
18748;SDS011;9503;53.560;10.246;2022-08-01T01:46:34;40.88;;;20.30;;
18748;SDS011;9503;53.560;10.246;2022-08-01T01:49:02;40.58;;;20.75;;
18748;SDS011;9503;53.560;10.246;2022-08-01T01:51:30;45.35;;;21.75;;
18748;SDS011;9503;53.560;10.246;2022-08-01T01:53:58;40.28;;;21.23;;
18748;SDS011;9503;53.560;10.246;2022-08-01T01:56:27;33.45;;;19.48;;
18748;SDS011;9503;53.560;10.246;2022-08-01T01:58:56;35.10;;;19.48;;
18748;SDS011;9503;53.560;10.246;2022-08-01T02:01:28;37.40;;;20.73;;
18748;SDS011;9503;53.560;10.246;2022-08-01T02:03:59;38.58;;;21.30;;
18748;SDS011;9503;53.560;10.246;2022-08-01T02:06:27;37.95;;;21.05;;
18748;SDS011;9503;53.560;10.246;2022-08-01T02:08:55;37.60;;;18.88;;
18748;SDS011;9503;53.560;10.246;2022-08-01T02:11:24;43.30;;;19.60;;
18748;SDS011;9503;53.560;10.246;2022-08-01T02:13:52;35.33;;;19.02;;
18748;SDS011;9503;53.560;10.246;2022-08-01T02:16:21;36.65;;;18.42;;
18748;SDS011;9503;53.560;10.246;2022-08-01T02:18:50;37.17;;;18.33;;
18748;SDS011;9503;53.560;10.246;2022-08-01T02:21:20;42.35;;;19.80;;
18748;SDS011;9503;53.560;10.246;2022-08-01T02:23:52;34.58;;;19.10;;
18748;SDS011;9503;53.560;10.246;2022-08-01T02:26:21;34.85;;;17.98;;
18748;SDS011;9503;53.560;10.246;2022-08-01T02:28:55;30.38;;;18.15;;
18748;SDS011;9503;53.560;10.246;2022-08-01T02:31:25;34.75;;;19.38;;
18748;SDS011;9503;53.560;10.246;2022-08-01T02:33:57;36.17;;;17.17;;
18748;SDS011;9503;53.560;10.246;2022-08-01T02:36:28;24.70;;;14.50;;
18748;SDS011;9503;53.560;10.246;2022-08-01T02:38:59;28.38;;;16.13;;
18748;SDS011;9503;53.560;10.246;2022-08-01T02:41:27;32.22;;;15.70;;
18748;SDS011;9503;53.560;10.246;2022-08-01T02:43:58;30.77;;;15.50;;
18748;SDS011;9503;53.560;10.246;2022-08-01T02:46:29;32.17;;;15.45;;
18748;SDS011;9503;53.560;10.246;2022-08-01T02:49:01;29.70;;;15.50;;
18748;SDS011;9503;53.560;10.246;2022-08-01T02:51:32;25.42;;;14.75;;
18748;SDS011;9503;53.560;10.246;2022-08-01T02:54:01;26.52;;;15.50;;
18748;SDS011;9503;53.560;10.246;2022-08-01T02:56:31;30.40;;;15.55;;
18748;SDS011;9503;53.560;10.246;2022-08-01T02:59:03;29.48;;;16.40;;
18748;SDS011;9503;53.560;10.246;2022-08-01T03:01:32;28.40;;;14.85;;
18748;SDS011;9503;53.560;10.246;2022-08-01T03:04:01;30.48;;;15.73;;
18748;SDS011;9503;53.560;10.246;2022-08-01T03:06:30;26.20;;;15.10;;
18748;SDS011;9503;53.560;10.246;2022-08-01T03:09:00;29.55;;;15.07;;
18748;SDS011;9503;53.560;10.246;2022-08-01T03:11:29;31.10;;;16.33;;
18748;SDS011;9503;53.560;10.246;2022-08-01T03:13:57;23.63;;;15.50;;
18748;SDS011;9503;53.560;10.246;2022-08-01T03:16:27;28.67;;;16.58;;
18748;SDS011;9503;53.560;10.246;2022-08-01T03:18:56;32.40;;;15.55;;
18748;SDS011;9503;53.560;10.246;2022-08-01T03:21:24;23.30;;;14.73;;
18748;SDS011;9503;53.560;10.246;2022-08-01T03:23:54;31.90;;;17.42;;
18748;SDS011;9503;53.560;10.246;2022-08-01T03:26:24;27.60;;;17.48;;
18748;SDS011;9503;53.560;10.246;2022-08-01T03:28:54;29.80;;;17.00;;
18748;SDS011;9503;53.560;10.246;2022-08-01T03:31:23;26.27;;;15.82;;
18748;SDS011;9503;53.560;10.246;2022-08-01T03:33:51;29.88;;;18.20;;
18748;SDS011;9503;53.560;10.246;2022-08-01T03:36:18;36.03;;;18.00;;
18748;SDS011;9503;53.560;10.246;2022-08-01T03:38:50;32.83;;;18.55;;
18748;SDS011;9503;53.560;10.246;2022-08-01T03:41:21;27.10;;;18.52;;
18748;SDS011;9503;53.560;10.246;2022-08-01T03:43:52;36.65;;;19.42;;
18748;SDS011;9503;53.560;10.246;2022-08-01T03:46:26;29.38;;;17.83;;
18748;SDS011;9503;53.560;10.246;2022-08-01T03:49:00;27.90;;;18.75;;
18748;SDS011;9503;53.560;10.246;2022-08-01T03:51:32;33.13;;;18.98;;
18748;SDS011;9503;53.560;10.246;2022-08-01T03:54:00;29.70;;;17.42;;
18748;SDS011;9503;53.560;10.246;2022-08-01T03:56:29;31.95;;;18.33;;
18748;SDS011;9503;53.560;10.246;2022-08-01T03:58:58;25.25;;;17.08;;
18748;SDS011;9503;53.560;10.246;2022-08-01T04:01:25;29.20;;;17.10;;
18748;SDS011;9503;53.560;10.246;2022-08-01T04:03:54;28.17;;;17.42;;
18748;SDS011;9503;53.560;10.246;2022-08-01T04:06:21;27.08;;;16.27;;
18748;SDS011;9503;53.560;10.246;2022-08-01T04:08:48;26.20;;;17.13;;
18748;SDS011;9503;53.560;10.246;2022-08-01T04:11:21;28.45;;;17.33;;
18748;SDS011;9503;53.560;10.246;2022-08-01T04:13:52;24.88;;;15.85;;
18748;SDS011;9503;53.560;10.246;2022-08-01T04:16:19;19.75;;;14.20;;
18748;SDS011;9503;53.560;10.246;2022-08-01T04:18:46;26.17;;;15.75;;
18748;SDS011;9503;53.560;10.246;2022-08-01T04:21:13;21.02;;;15.43;;
18748;SDS011;9503;53.560;10.246;2022-08-01T04:23:43;26.58;;;14.20;;
18748;SDS011;9503;53.560;10.246;2022-08-01T04:26:12;18.85;;;14.00;;
18748;SDS011;9503;53.560;10.246;2022-08-01T04:28:42;21.48;;;13.82;;
18748;SDS011;9503;53.560;10.246;2022-08-01T04:31:11;18.65;;;13.77;;
18748;SDS011;9503;53.560;10.246;2022-08-01T04:33:40;19.85;;;13.25;;
18748;SDS011;9503;53.560;10.246;2022-08-01T04:36:12;20.15;;;13.60;;
18748;SDS011;9503;53.560;10.246;2022-08-01T04:38:45;22.83;;;13.68;;
18748;SDS011;9503;53.560;10.246;2022-08-01T04:41:15;19.25;;;13.25;;
18748;SDS011;9503;53.560;10.246;2022-08-01T04:43:43;18.60;;;12.80;;
18748;SDS011;9503;53.560;10.246;2022-08-01T04:46:13;21.25;;;12.10;;
18748;SDS011;9503;53.560;10.246;2022-08-01T04:48:43;17.63;;;11.80;;
18748;SDS011;9503;53.560;10.246;2022-08-01T04:51:11;16.15;;;11.95;;
18748;SDS011;9503;53.560;10.246;2022-08-01T04:53:40;16.92;;;10.90;;
18748;SDS011;9503;53.560;10.246;2022-08-01T04:56:07;15.57;;;10.18;;
18748;SDS011;9503;53.560;10.246;2022-08-01T04:58:33;17.88;;;10.02;;
18748;SDS011;9503;53.560;10.246;2022-08-01T05:01:00;14.85;;;10.32;;
18748;SDS011;9503;53.560;10.246;2022-08-01T05:03:28;15.70;;;10.07;;
18748;SDS011;9503;53.560;10.246;2022-08-01T05:05:55;12.68;;;9.57;;
18748;SDS011;9503;53.560;10.246;2022-08-01T05:08:22;14.55;;;9.27;;
18748;SDS011;9503;53.560;10.246;2022-08-01T05:10:48;17.08;;;9.20;;
18748;SDS011;9503;53.560;10.246;2022-08-01T05:13:15;12.00;;;8.18;;
18748;SDS011;9503;53.560;10.246;2022-08-01T05:15:42;12.95;;;8.48;;
18748;SDS011;9503;53.560;10.246;2022-08-01T05:18:09;10.57;;;8.02;;
18748;SDS011;9503;53.560;10.246;2022-08-01T05:20:37;11.23;;;7.75;;
18748;SDS011;9503;53.560;10.246;2022-08-01T05:23:04;10.10;;;7.68;;
18748;SDS011;9503;53.560;10.246;2022-08-01T05:25:31;12.45;;;8.35;;
18748;SDS011;9503;53.560;10.246;2022-08-01T05:27:58;14.30;;;8.45;;
18748;SDS011;9503;53.560;10.246;2022-08-01T05:30:25;10.02;;;7.90;;
18748;SDS011;9503;53.560;10.246;2022-08-01T05:32:51;9.90;;;7.18;;
18748;SDS011;9503;53.560;10.246;2022-08-01T05:35:18;9.40;;;7.10;;
18748;SDS011;9503;53.560;10.246;2022-08-01T05:37:46;10.25;;;7.38;;
18748;SDS011;9503;53.560;10.246;2022-08-01T05:40:13;9.68;;;6.80;;
18748;SDS011;9503;53.560;10.246;2022-08-01T05:42:39;9.40;;;6.30;;
18748;SDS011;9503;53.560;10.246;2022-08-01T05:45:06;9.65;;;5.93;;
18748;SDS011;9503;53.560;10.246;2022-08-01T05:47:33;6.40;;;5.80;;
18748;SDS011;9503;53.560;10.246;2022-08-01T05:50:00;6.00;;;5.38;;
18748;SDS011;9503;53.560;10.246;2022-08-01T05:52:27;5.32;;;4.78;;
18748;SDS011;9503;53.560;10.246;2022-08-01T05:54:55;5.90;;;3.95;;
18748;SDS011;9503;53.560;10.246;2022-08-01T05:57:21;7.22;;;4.30;;
18748;SDS011;9503;53.560;10.246;2022-08-01T05:59:48;4.90;;;4.40;;
18748;SDS011;9503;53.560;10.246;2022-08-01T06:02:15;5.05;;;4.47;;
18748;SDS011;9503;53.560;10.246;2022-08-01T06:04:42;7.82;;;4.47;;
18748;SDS011;9503;53.560;10.246;2022-08-01T06:07:08;5.82;;;4.30;;
18748;SDS011;9503;53.560;10.246;2022-08-01T06:09:35;6.82;;;4.30;;
18748;SDS011;9503;53.560;10.246;2022-08-01T06:12:04;7.25;;;4.18;;
18748;SDS011;9503;53.560;10.246;2022-08-01T06:14:31;5.00;;;4.60;;
18748;SDS011;9503;53.560;10.246;2022-08-01T06:16:58;4.82;;;4.32;;
18748;SDS011;9503;53.560;10.246;2022-08-01T06:19:25;5.65;;;3.97;;
18748;SDS011;9503;53.560;10.246;2022-08-01T06:21:51;6.90;;;3.90;;
18748;SDS011;9503;53.560;10.246;2022-08-01T06:24:18;5.38;;;3.83;;
18748;SDS011;9503;53.560;10.246;2022-08-01T06:26:45;6.32;;;3.30;;
18748;SDS011;9503;53.560;10.246;2022-08-01T06:29:13;5.55;;;2.70;;
18748;SDS011;9503;53.560;10.246;2022-08-01T06:31:40;7.50;;;3.20;;
18748;SDS011;9503;53.560;10.246;2022-08-01T06:34:07;7.30;;;3.20;;
18748;SDS011;9503;53.560;10.246;2022-08-01T06:36:33;9.75;;;3.20;;
18748;SDS011;9503;53.560;10.246;2022-08-01T06:39:00;5.97;;;3.22;;
18748;SDS011;9503;53.560;10.246;2022-08-01T06:41:27;3.03;;;2.47;;
18748;SDS011;9503;53.560;10.246;2022-08-01T06:43:54;3.67;;;2.40;;
18748;SDS011;9503;53.560;10.246;2022-08-01T06:46:22;7.65;;;3.15;;
18748;SDS011;9503;53.560;10.246;2022-08-01T06:48:49;5.07;;;2.85;;
18748;SDS011;9503;53.560;10.246;2022-08-01T06:51:16;5.78;;;2.60;;
18748;SDS011;9503;53.560;10.246;2022-08-01T06:53:45;6.70;;;2.30;;
18748;SDS011;9503;53.560;10.246;2022-08-01T06:56:11;7.75;;;3.00;;
18748;SDS011;9503;53.560;10.246;2022-08-01T06:58:38;7.03;;;2.50;;
18748;SDS011;9503;53.560;10.246;2022-08-01T07:01:05;8.38;;;2.42;;
18748;SDS011;9503;53.560;10.246;2022-08-01T07:03:33;8.90;;;2.78;;
18748;SDS011;9503;53.560;10.246;2022-08-01T07:06:01;5.72;;;2.47;;
18748;SDS011;9503;53.560;10.246;2022-08-01T07:08:27;8.68;;;2.90;;
18748;SDS011;9503;53.560;10.246;2022-08-01T07:10:54;7.88;;;3.00;;
18748;SDS011;9503;53.560;10.246;2022-08-01T07:13:24;5.45;;;2.80;;
18748;SDS011;9503;53.560;10.246;2022-08-01T07:15:51;7.25;;;2.90;;
18748;SDS011;9503;53.560;10.246;2022-08-01T07:18:18;6.82;;;2.95;;
18748;SDS011;9503;53.560;10.246;2022-08-01T07:20:46;8.13;;;2.58;;
18748;SDS011;9503;53.560;10.246;2022-08-01T07:23:13;7.25;;;2.83;;
18748;SDS011;9503;53.560;10.246;2022-08-01T07:25:40;8.70;;;3.22;;
18748;SDS011;9503;53.560;10.246;2022-08-01T07:28:07;14.27;;;3.08;;
18748;SDS011;9503;53.560;10.246;2022-08-01T07:30:34;6.25;;;2.88;;
18748;SDS011;9503;53.560;10.246;2022-08-01T07:33:01;9.63;;;3.55;;
18748;SDS011;9503;53.560;10.246;2022-08-01T07:35:28;10.40;;;3.85;;
18748;SDS011;9503;53.560;10.246;2022-08-01T07:37:56;10.60;;;3.97;;
18748;SDS011;9503;53.560;10.246;2022-08-01T07:40:23;8.48;;;4.30;;
18748;SDS011;9503;53.560;10.246;2022-08-01T07:42:49;9.68;;;4.28;;
18748;SDS011;9503;53.560;10.246;2022-08-01T07:45:16;13.43;;;5.43;;
18748;SDS011;9503;53.560;10.246;2022-08-01T07:47:44;14.88;;;4.78;;
18748;SDS011;9503;53.560;10.246;2022-08-01T07:50:12;10.43;;;5.18;;
18748;SDS011;9503;53.560;10.246;2022-08-01T07:52:38;11.77;;;5.07;;
18748;SDS011;9503;53.560;10.246;2022-08-01T07:55:08;15.65;;;6.10;;
18748;SDS011;9503;53.560;10.246;2022-08-01T07:57:37;13.18;;;5.30;;
18748;SDS011;9503;53.560;10.246;2022-08-01T08:00:05;12.30;;;5.25;;
18748;SDS011;9503;53.560;10.246;2022-08-01T08:02:33;21.40;;;6.53;;
18748;SDS011;9503;53.560;10.246;2022-08-01T08:05:01;16.88;;;6.00;;
18748;SDS011;9503;53.560;10.246;2022-08-01T08:07:29;10.23;;;5.65;;
18748;SDS011;9503;53.560;10.246;2022-08-01T08:09:55;13.52;;;5.45;;
18748;SDS011;9503;53.560;10.246;2022-08-01T08:12:24;17.92;;;4.90;;
18748;SDS011;9503;53.560;10.246;2022-08-01T08:14:50;16.23;;;5.35;;
18748;SDS011;9503;53.560;10.246;2022-08-01T08:17:17;15.68;;;5.45;;
18748;SDS011;9503;53.560;10.246;2022-08-01T08:19:44;13.57;;;4.32;;
18748;SDS011;9503;53.560;10.246;2022-08-01T08:22:11;13.10;;;4.60;;
18748;SDS011;9503;53.560;10.246;2022-08-01T08:24:38;15.43;;;4.40;;
18748;SDS011;9503;53.560;10.246;2022-08-01T08:27:04;10.43;;;4.05;;
18748;SDS011;9503;53.560;10.246;2022-08-01T08:29:34;10.52;;;4.32;;
18748;SDS011;9503;53.560;10.246;2022-08-01T08:32:01;15.80;;;4.53;;
18748;SDS011;9503;53.560;10.246;2022-08-01T08:34:28;11.57;;;3.70;;
18748;SDS011;9503;53.560;10.246;2022-08-01T08:36:56;9.45;;;3.97;;
18748;SDS011;9503;53.560;10.246;2022-08-01T08:39:24;17.42;;;3.80;;
18748;SDS011;9503;53.560;10.246;2022-08-01T08:41:51;13.27;;;3.45;;
18748;SDS011;9503;53.560;10.246;2022-08-01T08:44:18;11.65;;;3.42;;
18748;SDS011;9503;53.560;10.246;2022-08-01T08:46:48;12.35;;;3.33;;
18748;SDS011;9503;53.560;10.246;2022-08-01T08:49:17;14.75;;;3.20;;
18748;SDS011;9503;53.560;10.246;2022-08-01T08:51:47;9.88;;;3.13;;
18748;SDS011;9503;53.560;10.246;2022-08-01T08:54:15;16.85;;;3.78;;
18748;SDS011;9503;53.560;10.246;2022-08-01T08:56:44;9.82;;;2.95;;
18748;SDS011;9503;53.560;10.246;2022-08-01T08:59:13;11.88;;;2.92;;
18748;SDS011;9503;53.560;10.246;2022-08-01T09:01:40;5.72;;;2.92;;
18748;SDS011;9503;53.560;10.246;2022-08-01T09:04:08;11.35;;;3.35;;
18748;SDS011;9503;53.560;10.246;2022-08-01T09:06:35;10.68;;;3.50;;
18748;SDS011;9503;53.560;10.246;2022-08-01T09:09:02;16.40;;;3.95;;
18748;SDS011;9503;53.560;10.246;2022-08-01T09:11:33;12.52;;;4.18;;
18748;SDS011;9503;53.560;10.246;2022-08-01T09:14:06;10.07;;;3.92;;
18748;SDS011;9503;53.560;10.246;2022-08-01T09:16:35;5.28;;;3.30;;
18748;SDS011;9503;53.560;10.246;2022-08-01T09:19:14;9.50;;;3.67;;
18748;SDS011;9503;53.560;10.246;2022-08-01T09:21:54;11.73;;;3.45;;
18748;SDS011;9503;53.560;10.246;2022-08-01T09:24:24;10.80;;;3.45;;
18748;SDS011;9503;53.560;10.246;2022-08-01T09:26:51;7.80;;;3.28;;
18748;SDS011;9503;53.560;10.246;2022-08-01T09:29:19;6.28;;;2.55;;
18748;SDS011;9503;53.560;10.246;2022-08-01T09:31:48;3.42;;;2.25;;
18748;SDS011;9503;53.560;10.246;2022-08-01T09:34:16;6.32;;;2.80;;
18748;SDS011;9503;53.560;10.246;2022-08-01T09:36:51;8.45;;;2.65;;
18748;SDS011;9503;53.560;10.246;2022-08-01T09:39:21;6.97;;;2.58;;
18748;SDS011;9503;53.560;10.246;2022-08-01T09:41:50;10.95;;;3.08;;
18748;SDS011;9503;53.560;10.246;2022-08-01T09:44:17;7.57;;;2.80;;
18748;SDS011;9503;53.560;10.246;2022-08-01T09:46:49;5.82;;;2.42;;
18748;SDS011;9503;53.560;10.246;2022-08-01T09:49:27;9.23;;;2.30;;
18748;SDS011;9503;53.560;10.246;2022-08-01T09:51:56;5.65;;;2.20;;
18748;SDS011;9503;53.560;10.246;2022-08-01T09:54:28;8.30;;;2.72;;
18748;SDS011;9503;53.560;10.246;2022-08-01T09:57:07;5.03;;;2.40;;
18748;SDS011;9503;53.560;10.246;2022-08-01T09:59:38;9.13;;;3.05;;
18748;SDS011;9503;53.560;10.246;2022-08-01T10:02:07;12.05;;;3.03;;
18748;SDS011;9503;53.560;10.246;2022-08-01T10:04:36;5.05;;;2.50;;
18748;SDS011;9503;53.560;10.246;2022-08-01T10:07:04;9.80;;;3.20;;
18748;SDS011;9503;53.560;10.246;2022-08-01T10:09:32;7.55;;;2.70;;
18748;SDS011;9503;53.560;10.246;2022-08-01T10:12:00;10.65;;;2.65;;
18748;SDS011;9503;53.560;10.246;2022-08-01T10:14:28;7.68;;;2.70;;
18748;SDS011;9503;53.560;10.246;2022-08-01T10:16:56;7.93;;;2.58;;
18748;SDS011;9503;53.560;10.246;2022-08-01T10:19:27;12.05;;;2.80;;
18748;SDS011;9503;53.560;10.246;2022-08-01T10:21:58;8.23;;;2.45;;
18748;SDS011;9503;53.560;10.246;2022-08-01T10:24:27;12.13;;;2.80;;
18748;SDS011;9503;53.560;10.246;2022-08-01T10:26:56;8.40;;;2.63;;
18748;SDS011;9503;53.560;10.246;2022-08-01T10:29:30;7.53;;;2.65;;
18748;SDS011;9503;53.560;10.246;2022-08-01T10:32:00;7.95;;;2.40;;
18748;SDS011;9503;53.560;10.246;2022-08-01T10:34:28;4.97;;;2.33;;
18748;SDS011;9503;53.560;10.246;2022-08-01T10:36:56;9.25;;;2.50;;
18748;SDS011;9503;53.560;10.246;2022-08-01T10:39:25;8.30;;;2.90;;
18748;SDS011;9503;53.560;10.246;2022-08-01T10:41:54;5.50;;;2.47;;
18748;SDS011;9503;53.560;10.246;2022-08-01T10:44:21;13.75;;;2.70;;
18748;SDS011;9503;53.560;10.246;2022-08-01T10:46:50;7.57;;;2.50;;
18748;SDS011;9503;53.560;10.246;2022-08-01T10:49:23;6.55;;;2.38;;
18748;SDS011;9503;53.560;10.246;2022-08-01T10:51:54;8.25;;;2.75;;
18748;SDS011;9503;53.560;10.246;2022-08-01T10:54:25;6.70;;;2.10;;
18748;SDS011;9503;53.560;10.246;2022-08-01T10:56:52;6.88;;;2.50;;
18748;SDS011;9503;53.560;10.246;2022-08-01T10:59:21;8.80;;;2.50;;
18748;SDS011;9503;53.560;10.246;2022-08-01T11:01:55;9.10;;;2.53;;
18748;SDS011;9503;53.560;10.246;2022-08-01T11:04:32;7.72;;;2.25;;
18748;SDS011;9503;53.560;10.246;2022-08-01T11:07:04;6.93;;;2.13;;
18748;SDS011;9503;53.560;10.246;2022-08-01T11:09:40;5.45;;;1.98;;
18748;SDS011;9503;53.560;10.246;2022-08-01T11:12:09;8.63;;;2.15;;
18748;SDS011;9503;53.560;10.246;2022-08-01T11:17:42;7.90;;;2.47;;
18748;SDS011;9503;53.560;10.246;2022-08-01T11:20:13;5.70;;;2.40;;
18748;SDS011;9503;53.560;10.246;2022-08-01T11:26:07;6.25;;;2.60;;
18748;SDS011;9503;53.560;10.246;2022-08-01T11:28:35;8.38;;;2.10;;
18748;SDS011;9503;53.560;10.246;2022-08-01T11:33:51;5.28;;;2.05;;
18748;SDS011;9503;53.560;10.246;2022-08-01T11:36:18;7.45;;;2.25;;
18748;SDS011;9503;53.560;10.246;2022-08-01T11:38:46;11.57;;;2.42;;
18748;SDS011;9503;53.560;10.246;2022-08-01T11:41:17;6.85;;;2.08;;
18748;SDS011;9503;53.560;10.246;2022-08-01T11:43:55;7.38;;;2.00;;
18748;SDS011;9503;53.560;10.246;2022-08-01T11:49:37;6.32;;;2.22;;
18748;SDS011;9503;53.560;10.246;2022-08-01T11:52:15;8.10;;;1.95;;
18748;SDS011;9503;53.560;10.246;2022-08-01T11:54:45;6.57;;;1.95;;
18748;SDS011;9503;53.560;10.246;2022-08-01T11:57:17;4.80;;;2.30;;
18748;SDS011;9503;53.560;10.246;2022-08-01T11:59:45;7.22;;;1.90;;
18748;SDS011;9503;53.560;10.246;2022-08-01T12:02:21;7.78;;;2.22;;
18748;SDS011;9503;53.560;10.246;2022-08-01T12:04:50;10.30;;;2.00;;
18748;SDS011;9503;53.560;10.246;2022-08-01T12:07:19;5.25;;;1.98;;
18748;SDS011;9503;53.560;10.246;2022-08-01T12:09:47;8.38;;;2.40;;
18748;SDS011;9503;53.560;10.246;2022-08-01T12:12:16;12.50;;;2.55;;
18748;SDS011;9503;53.560;10.246;2022-08-01T12:14:44;9.63;;;2.65;;
18748;SDS011;9503;53.560;10.246;2022-08-01T12:17:11;5.63;;;1.88;;
18748;SDS011;9503;53.560;10.246;2022-08-01T12:19:39;9.48;;;2.35;;
18748;SDS011;9503;53.560;10.246;2022-08-01T12:22:07;6.10;;;1.70;;
18748;SDS011;9503;53.560;10.246;2022-08-01T12:24:36;7.60;;;1.90;;
18748;SDS011;9503;53.560;10.246;2022-08-01T12:27:05;5.60;;;1.85;;
18748;SDS011;9503;53.560;10.246;2022-08-01T12:29:35;5.95;;;1.92;;
18748;SDS011;9503;53.560;10.246;2022-08-01T12:32:03;8.48;;;1.95;;
18748;SDS011;9503;53.560;10.246;2022-08-01T12:34:31;6.47;;;1.92;;
18748;SDS011;9503;53.560;10.246;2022-08-01T12:37:00;3.53;;;1.60;;
18748;SDS011;9503;53.560;10.246;2022-08-01T12:39:32;5.30;;;1.63;;
18748;SDS011;9503;53.560;10.246;2022-08-01T12:41:59;8.88;;;1.75;;
18748;SDS011;9503;53.560;10.246;2022-08-01T12:44:26;3.55;;;1.75;;
18748;SDS011;9503;53.560;10.246;2022-08-01T12:46:55;6.45;;;2.00;;
18748;SDS011;9503;53.560;10.246;2022-08-01T12:49:23;5.65;;;1.70;;
18748;SDS011;9503;53.560;10.246;2022-08-01T12:51:50;5.05;;;2.08;;
18748;SDS011;9503;53.560;10.246;2022-08-01T12:54:17;5.50;;;1.70;;
18748;SDS011;9503;53.560;10.246;2022-08-01T12:56:44;4.03;;;1.65;;
18748;SDS011;9503;53.560;10.246;2022-08-01T12:59:21;4.75;;;1.75;;
18748;SDS011;9503;53.560;10.246;2022-08-01T13:01:50;5.68;;;1.73;;
18748;SDS011;9503;53.560;10.246;2022-08-01T13:04:19;5.45;;;1.58;;
18748;SDS011;9503;53.560;10.246;2022-08-01T13:06:46;6.35;;;1.88;;
18748;SDS011;9503;53.560;10.246;2022-08-01T13:09:13;5.15;;;1.77;;
18748;SDS011;9503;53.560;10.246;2022-08-01T13:11:40;4.40;;;1.73;;
18748;SDS011;9503;53.560;10.246;2022-08-01T13:14:08;2.40;;;1.30;;
18748;SDS011;9503;53.560;10.246;2022-08-01T13:16:45;4.72;;;1.27;;
18748;SDS011;9503;53.560;10.246;2022-08-01T13:19:12;4.38;;;1.60;;
18748;SDS011;9503;53.560;10.246;2022-08-01T13:21:42;5.78;;;1.73;;
18748;SDS011;9503;53.560;10.246;2022-08-01T13:24:24;4.68;;;1.70;;
18748;SDS011;9503;53.560;10.246;2022-08-01T13:26:53;3.75;;;1.27;;
18748;SDS011;9503;53.560;10.246;2022-08-01T13:29:28;4.97;;;1.70;;
18748;SDS011;9503;53.560;10.246;2022-08-01T13:31:56;8.30;;;2.03;;
18748;SDS011;9503;53.560;10.246;2022-08-01T13:34:30;6.82;;;1.60;;
18748;SDS011;9503;53.560;10.246;2022-08-01T13:37:00;1.92;;;1.25;;
18748;SDS011;9503;53.560;10.246;2022-08-01T13:39:28;6.28;;;1.65;;
18748;SDS011;9503;53.560;10.246;2022-08-01T13:42:07;7.43;;;1.63;;
18748;SDS011;9503;53.560;10.246;2022-08-01T13:44:34;9.43;;;1.80;;
18748;SDS011;9503;53.560;10.246;2022-08-01T13:47:01;6.32;;;2.03;;
18748;SDS011;9503;53.560;10.246;2022-08-01T13:49:29;4.55;;;1.83;;
18748;SDS011;9503;53.560;10.246;2022-08-01T13:51:56;4.38;;;1.80;;
18748;SDS011;9503;53.560;10.246;2022-08-01T13:54:25;7.35;;;1.67;;
18748;SDS011;9503;53.560;10.246;2022-08-01T13:56:52;5.82;;;1.58;;
18748;SDS011;9503;53.560;10.246;2022-08-01T13:59:20;5.03;;;1.67;;
18748;SDS011;9503;53.560;10.246;2022-08-01T14:01:47;4.78;;;1.58;;
18748;SDS011;9503;53.560;10.246;2022-08-01T14:04:14;11.52;;;1.73;;
18748;SDS011;9503;53.560;10.246;2022-08-01T14:06:41;6.28;;;1.85;;
18748;SDS011;9503;53.560;10.246;2022-08-01T14:09:07;11.68;;;1.67;;
18748;SDS011;9503;53.560;10.246;2022-08-01T14:11:36;5.53;;;1.70;;
18748;SDS011;9503;53.560;10.246;2022-08-01T14:14:03;3.53;;;1.35;;
18748;SDS011;9503;53.560;10.246;2022-08-01T14:16:30;4.85;;;1.42;;
18748;SDS011;9503;53.560;10.246;2022-08-01T14:18:56;7.03;;;1.50;;
18748;SDS011;9503;53.560;10.246;2022-08-01T14:21:23;5.13;;;1.50;;
18748;SDS011;9503;53.560;10.246;2022-08-01T14:23:50;3.85;;;1.88;;
18748;SDS011;9503;53.560;10.246;2022-08-01T14:26:16;5.07;;;1.52;;
18748;SDS011;9503;53.560;10.246;2022-08-01T14:28:45;6.70;;;1.52;;
18748;SDS011;9503;53.560;10.246;2022-08-01T14:31:11;3.80;;;1.40;;
18748;SDS011;9503;53.560;10.246;2022-08-01T14:33:41;8.75;;;1.80;;
18748;SDS011;9503;53.560;10.246;2022-08-01T14:36:08;6.07;;;2.00;;
18748;SDS011;9503;53.560;10.246;2022-08-01T14:38:34;2.85;;;1.60;;
18748;SDS011;9503;53.560;10.246;2022-08-01T14:41:01;3.92;;;1.58;;
18748;SDS011;9503;53.560;10.246;2022-08-01T14:43:29;4.78;;;1.63;;
18748;SDS011;9503;53.560;10.246;2022-08-01T14:45:58;5.22;;;1.60;;
18748;SDS011;9503;53.560;10.246;2022-08-01T14:48:25;4.43;;;1.90;;
18748;SDS011;9503;53.560;10.246;2022-08-01T14:50:52;3.00;;;1.80;;
18748;SDS011;9503;53.560;10.246;2022-08-01T14:53:19;5.80;;;1.63;;
18748;SDS011;9503;53.560;10.246;2022-08-01T14:55:46;5.00;;;1.85;;
18748;SDS011;9503;53.560;10.246;2022-08-01T14:58:13;4.68;;;1.65;;
18748;SDS011;9503;53.560;10.246;2022-08-01T15:00:39;2.60;;;1.52;;
18748;SDS011;9503;53.560;10.246;2022-08-01T15:03:08;5.57;;;1.85;;